Time;durP1;ratioP1;P1;durP2;ratioP2;P2;SDS_P1;SDS_P2;PMS_P1;PMS_P2;Temp;Humidity;BMP_temperature;BMP_pressure;BME280_temperature;BME280_humidity;BME280_pressure;Samples;Min_cycle;Max_cycle;Signal;HPM_P1;HPM_P2
2022/05/08 00:00:58;;;;;;;1.40;1.13;;;;;;;9.23;76.99;101033.75;5060367;28;20041;-71
2022/05/08 00:03:24;;;;;;;1.10;1.00;;;;;;;9.09;76.52;101029.78;5064394;28;20124;-70
2022/05/08 00:05:49;;;;;;;0.80;0.80;;;;;;;9.06;76.50;101040.69;5061451;28;20056;-70
2022/05/08 00:08:15;;;;;;;0.90;0.80;;;;;;;9.05;76.92;101051.47;5059314;28;20040;-69
2022/05/08 00:10:40;;;;;;;1.07;0.97;;;;;;;9.04;76.70;101060.41;5055917;28;20438;-71
2022/05/08 00:13:07;;;;;;;1.37;0.90;;;;;;;8.90;77.57;101048.44;5055991;28;20040;-70
2022/05/08 00:15:32;;;;;;;1.43;1.33;;;;;;;8.85;77.63;101062.16;5054322;28;20057;-69
2022/05/08 00:17:58;;;;;;;6.20;1.10;;;;;;;8.44;77.50;101020.06;5054409;28;20484;-69
2022/05/08 00:20:24;;;;;;;1.10;1.00;;;;;;;8.72;78.57;101072.25;5055303;28;20029;-71
2022/05/08 00:22:49;;;;;;;1.10;0.73;;;;;;;8.60;77.42;101044.16;5055027;28;20162;-70
2022/05/08 00:25:15;;;;;;;1.00;0.90;;;;;;;8.67;78.02;101069.16;5055032;28;20419;-71
2022/05/08 00:27:40;;;;;;;1.30;0.80;;;;;;;8.64;78.51;101064.13;5055151;28;20043;-70
2022/05/08 00:30:06;;;;;;;1.20;1.10;;;;;;;8.68;77.88;101087.63;5055124;28;20381;-71
2022/05/08 00:32:32;;;;;;;0.83;0.70;;;;;;;8.62;78.36;101087.34;5054962;28;20037;-73
2022/05/08 00:34:58;;;;;;;0.80;0.70;;;;;;;8.56;77.16;101098.53;5054836;28;20067;-70
2022/05/08 00:37:23;;;;;;;1.07;0.97;;;;;;;8.47;77.32;101084.31;5054949;28;20107;-73
2022/05/08 00:39:49;;;;;;;1.10;0.77;;;;;;;8.51;78.18;101106.09;5055011;28;20094;-70
2022/05/08 00:42:14;;;;;;;0.60;0.60;;;;;;;8.41;77.91;101115.88;5054639;28;20381;-71
2022/05/08 00:44:40;;;;;;;1.00;1.00;;;;;;;8.32;77.41;101128.13;5054835;28;20451;-70
2022/05/08 00:47:05;;;;;;;0.70;0.57;;;;;;;8.15;77.31;101111.09;5054592;28;20542;-71
2022/05/08 00:49:31;;;;;;;0.93;0.83;;;;;;;8.13;77.34;101126.31;5054758;28;20036;-69
2022/05/08 00:51:57;;;;;;;1.00;0.90;;;;;;;8.01;76.34;101124.72;5053667;28;20423;-68
2022/05/08 00:54:23;;;;;;;0.80;0.80;;;;;;;8.06;75.49;101135.75;5056130;28;20491;-68
2022/05/08 00:56:49;;;;;;;0.90;0.70;;;;;;;7.85;72.93;101132.41;5055359;28;20048;-67
2022/05/08 00:59:14;;;;;;;1.30;0.80;;;;;;;7.67;73.33;101146.28;5054533;28;20074;-69
2022/05/08 01:01:40;;;;;;;1.33;1.00;;;;;;;7.45;73.43;101138.53;5054520;28;20033;-69
2022/05/08 01:04:05;;;;;;;1.67;1.13;;;;;;;7.59;73.13;101150.59;5054375;28;20064;-68
2022/05/08 01:06:32;;;;;;;1.20;0.90;;;;;;;7.49;72.42;101153.19;5054060;28;20450;-67
2022/05/08 01:08:58;;;;;;;1.97;0.90;;;;;;;7.42;72.43;101160.00;5052226;28;20041;-68
2022/05/08 01:11:24;;;;;;;1.43;1.13;;;;;;;7.40;72.39;101167.22;5054349;28;20090;-67
2022/05/08 01:13:50;;;;;;;1.10;1.00;;;;;;;7.34;72.78;101168.59;5054400;28;20044;-68
2022/05/08 01:16:18;;;;;;;4.00;1.63;;;;;;;7.26;73.53;101159.66;5054131;28;20055;-68
2022/05/08 01:18:44;;;;;;;1.65;1.55;;;;;;;7.23;72.97;101174.00;5054251;28;20171;-68
2022/05/08 01:21:13;;;;;;;2.57;1.20;;;;;;;7.21;73.21;101172.41;5054135;28;20585;-68
2022/05/08 01:23:39;;;;;;;1.27;1.17;;;;;;;7.11;73.84;101177.66;5054167;28;20040;-68
2022/05/08 01:26:06;;;;;;;1.77;1.20;;;;;;;7.14;73.74;101186.19;5054123;28;20036;-67
2022/05/08 01:28:31;;;;;;;2.60;1.60;;;;;;;7.26;73.04;101188.78;5054017;28;20041;-68
2022/05/08 01:30:57;;;;;;;1.10;1.00;;;;;;;7.28;72.36;101189.50;5053686;28;20048;-68
2022/05/08 01:33:23;;;;;;;1.70;1.20;;;;;;;7.24;72.70;101183.63;5053813;28;20044;-66
2022/05/08 01:35:49;;;;;;;2.40;1.30;;;;;;;7.22;72.43;101184.69;5053697;28;20048;-70
2022/05/08 01:38:18;;;;;;;2.20;1.30;;;;;;;7.25;71.62;101187.94;5054041;28;20537;-69
2022/05/08 01:40:44;;;;;;;1.10;1.00;;;;;;;7.30;71.33;101208.75;5053961;28;20056;-68
2022/05/08 01:43:11;;;;;;;1.30;1.20;;;;;;;7.08;71.34;101185.88;5053992;28;20466;-69
2022/05/08 01:45:37;;;;;;;1.17;1.07;;;;;;;6.94;71.82;101202.06;5053683;28;20068;-70
2022/05/08 01:50:52;;;;;;;1.73;1.23;;;;;;;6.95;73.21;101219.66;5053709;28;20033;-66
2022/05/08 01:53:19;;;;;;;1.60;1.47;;;;;;;6.76;73.31;101193.88;5053512;28;20136;-69
2022/05/08 01:55:47;;;;;;;1.93;1.10;;;;;;;6.91;73.06;101224.34;5053534;28;20037;-67
2022/05/08 01:58:12;;;;;;;2.13;1.23;;;;;;;6.87;73.34;101217.63;5053531;28;20407;-69
2022/05/08 02:00:38;;;;;;;1.83;1.57;;;;;;;6.52;72.85;101173.75;5053157;28;20037;-70
2022/05/08 02:03:04;;;;;;;1.70;1.33;;;;;;;6.52;73.34;101176.41;5053056;28;20033;-68
2022/05/08 02:05:31;;;;;;;1.20;1.07;;;;;;;6.66;71.43;101191.16;5053147;28;20135;-67
2022/05/08 02:07:57;;;;;;;1.30;1.20;;;;;;;6.70;71.50;101186.44;5053407;28;20041;-69
2022/05/08 02:10:23;;;;;;;3.60;1.53;;;;;;;6.87;72.08;101222.94;5053218;28;20075;-69
2022/05/08 02:12:49;;;;;;;1.27;1.17;;;;;;;6.92;71.52;101241.91;5053031;28;20068;-69
2022/05/08 02:15:15;;;;;;;1.40;1.23;;;;;;;6.94;71.21;101247.97;5053095;28;20091;-68
2022/05/08 02:17:41;;;;;;;1.80;1.30;;;;;;;6.74;70.34;101231.06;5052651;28;20584;-69
2022/05/08 02:20:08;;;;;;;1.43;1.20;;;;;;;6.71;70.84;101264.88;5051748;28;20404;-67
2022/05/08 02:22:34;;;;;;;2.40;1.27;;;;;;;6.57;70.90;101246.63;5052814;28;20039;-68
2022/05/08 02:25:00;;;;;;;1.20;1.10;;;;;;;6.52;71.24;101250.50;5053136;28;20044;-67
2022/05/08 02:27:26;;;;;;;2.33;1.50;;;;;;;6.44;71.18;101260.88;5053238;28;20068;-69
2022/05/08 02:29:52;;;;;;;2.60;1.20;;;;;;;6.37;71.39;101262.34;5052623;28;20061;-68
2022/05/08 02:32:18;;;;;;;1.13;1.03;;;;;;;6.34;72.50;101248.47;5052498;28;20075;-69
2022/05/08 02:34:45;;;;;;;1.67;1.57;;;;;;;6.30;72.51;101239.97;5052690;28;20106;-68
2022/05/08 02:37:13;;;;;;;1.40;1.30;;;;;;;6.57;72.14;101254.56;5052472;28;20099;-67
2022/05/08 02:39:39;;;;;;;1.48;1.35;;;;;;;6.72;71.34;101272.69;5052601;28;20586;-68
2022/05/08 02:42:05;;;;;;;2.10;1.23;;;;;;;6.73;72.17;101278.84;5052422;28;20144;-67
2022/05/08 02:44:31;;;;;;;3.20;2.30;;;;;;;6.63;71.83;101267.28;5052500;28;20454;-66
2022/05/08 02:46:57;;;;;;;1.50;1.23;;;;;;;6.77;72.52;101285.56;5051372;28;20102;-67
2022/05/08 02:49:23;;;;;;;3.50;1.60;;;;;;;6.79;71.93;101278.31;5052422;28;20032;-68
2022/05/08 02:51:49;;;;;;;1.87;1.17;;;;;;;6.81;71.57;101292.28;5051165;28;20447;-68
2022/05/08 02:54:14;;;;;;;2.60;1.30;;;;;;;6.71;71.31;101289.56;5052256;28;20410;-68
2022/05/08 02:59:23;;;;;;;1.53;1.17;;;;;;;6.59;71.61;101293.19;5052012;28;20033;-67
2022/05/08 03:01:49;;;;;;;1.30;1.17;;;;;;;6.70;70.96;101303.75;5051006;28;20173;-69
2022/05/08 03:04:14;;;;;;;2.10;1.40;;;;;;;6.74;70.05;101301.69;5051069;28;20481;-67
2022/05/08 03:06:40;;;;;;;1.63;1.53;;;;;;;6.80;70.95;101311.78;5055223;28;20039;-68
2022/05/08 03:09:05;;;;;;;3.00;1.67;;;;;;;6.71;70.09;101312.53;5051267;28;20484;-68
2022/05/08 03:11:32;;;;;;;5.43;1.60;;;;;;;6.86;69.94;101327.16;5052074;28;20029;-67
2022/05/08 03:13:59;;;;;;;2.13;1.30;;;;;;;6.94;69.86;101318.59;5052738;28;20052;-69
2022/05/08 03:16:27;;;;;;;2.70;1.30;;;;;;;6.88;68.48;101330.53;5052818;28;20132;-68
2022/05/08 03:18:53;;;;;;;1.90;1.27;;;;;;;6.93;68.26;101335.44;5054394;28;20033;-67
2022/05/08 03:21:19;;;;;;;2.07;1.40;;;;;;;6.88;67.56;101319.94;5052365;28;20116;-66
2022/05/08 03:23:46;;;;;;;3.07;1.20;;;;;;;7.04;68.53;101319.53;5053800;28;20037;-68
2022/05/08 03:26:15;;;;;;;2.27;2.07;;;;;;;7.27;66.75;101281.38;5052833;28;20036;-67
2022/05/08 03:28:42;;;;;;;3.95;2.20;;;;;;;7.95;66.27;101329.50;5054527;28;20025;-67
2022/05/08 03:31:09;;;;;;;3.73;1.60;;;;;;;7.76;65.77;101332.88;5053377;28;20045;-68
2022/05/08 03:33:36;;;;;;;18.73;2.60;;;;;;;7.52;66.72;101346.41;5051543;28;20465;-66
2022/05/08 03:36:03;;;;;;;1.83;1.67;;;;;;;7.29;68.24;101329.78;5053511;28;20483;-68
2022/05/08 03:38:30;;;;;;;3.70;1.97;;;;;;;7.15;68.18;101346.81;5053216;28;20049;-66
2022/05/08 03:40:56;;;;;;;2.83;1.93;;;;;;;7.03;68.35;101333.75;5052275;28;20073;-68
2022/05/08 03:43:21;;;;;;;2.60;1.87;;;;;;;7.06;68.03;101352.88;5051931;28;20071;-68
2022/05/08 03:45:50;;;;;;;3.60;1.70;;;;;;;7.19;68.04;101370.38;5052957;28;20091;-66
2022/05/08 03:48:21;;;;;;;2.30;1.87;;;;;;;7.06;66.49;101358.16;5052624;28;20463;-68
2022/05/08 03:50:46;;;;;;;2.00;1.60;;;;;;;6.98;66.89;101357.94;5052847;28;20060;-69
2022/05/08 03:53:12;;;;;;;3.90;1.70;;;;;;;6.99;67.44;101358.78;5053926;28;20048;-67
2022/05/08 03:55:38;;;;;;;3.40;2.00;;;;;;;7.01;67.33;101373.59;5053563;28;20408;-67
2022/05/08 03:58:04;;;;;;;3.70;1.70;;;;;;;7.12;67.42;101381.50;5053837;28;20614;-67
2022/05/08 04:00:30;;;;;;;4.03;1.70;;;;;;;7.00;67.82;101356.03;5051366;28;20056;-66
2022/05/08 04:02:55;;;;;;;2.73;2.07;;;;;;;7.09;67.87;101368.50;5051608;28;20041;-68
2022/05/08 04:05:22;;;;;;;3.03;1.67;;;;;;;6.86;67.86;101335.09;5051487;28;20041;-66
2022/05/08 04:07:48;;;;;;;2.20;1.43;;;;;;;7.25;68.39;101393.75;5053174;28;20040;-67
2022/05/08 04:10:14;;;;;;;1.90;1.63;;;;;;;7.09;67.35;101394.16;5053232;28;20029;-68
2022/05/08 04:12:42;;;;;;;4.43;1.93;;;;;;;7.10;67.58;101399.31;5052695;28;20127;-66
2022/05/08 04:17:53;;;;;;;5.23;3.70;;;;;;;7.02;67.32;101379.72;5052413;28;20113;-69
2022/05/08 04:20:19;;;;;;;10.97;5.37;;;;;;;7.10;67.72;101415.22;5051173;28;20476;-68
2022/05/08 04:25:28;;;;;;;9.33;5.17;;;;;;;7.16;68.16;101413.88;5056155;28;20028;-68
2022/05/08 04:27:54;;;;;;;5.67;4.30;;;;;;;7.26;68.21;101411.31;5052735;28;20041;-69
2022/05/08 04:30:19;;;;;;;6.63;4.30;;;;;;;7.31;68.24;101406.50;5053738;28;20044;-65
2022/05/08 04:32:45;;;;;;;4.20;2.60;;;;;;;7.32;68.13;101397.56;5052520;28;20523;-68
2022/05/08 04:35:12;;;;;;;6.10;3.77;;;;;;;7.38;67.15;101405.00;5052743;28;20132;-67
2022/05/08 04:37:38;;;;;;;4.97;2.80;;;;;;;7.36;68.04;101420.19;5056907;28;20061;-67
2022/05/08 04:40:06;;;;;;;2.60;2.03;;;;;;;6.98;68.05;101363.25;5054058;28;20069;-66
2022/05/08 04:42:31;;;;;;;3.63;2.30;;;;;;;7.22;68.86;101408.06;5053091;28;20112;-68
2022/05/08 04:44:59;;;;;;;3.33;1.90;;;;;;;7.36;68.16;101426.34;5057645;28;20072;-68
2022/05/08 04:47:27;;;;;;;3.63;3.17;;;;;;;6.89;68.14;101360.47;5057312;28;20480;-68
2022/05/08 04:49:54;;;;;;;4.57;2.50;;;;;;;7.19;68.46;101397.72;5054840;28;20385;-69
2022/05/08 04:52:20;;;;;;;2.83;2.20;;;;;;;7.45;68.36;101428.22;5058317;28;20033;-69
2022/05/08 04:54:45;;;;;;;6.50;2.50;;;;;;;7.62;67.64;101428.66;5060315;28;20058;-68
2022/05/08 04:57:11;;;;;;;2.60;2.37;;;;;;;7.89;67.70;101428.16;5056812;28;20037;-68
2022/05/08 04:59:36;;;;;;;3.47;2.20;;;;;;;7.91;66.29;101427.06;5059807;28;20487;-70
2022/05/08 05:02:02;;;;;;;3.43;2.17;;;;;;;7.89;65.73;101438.78;5057333;28;20400;-69
2022/05/08 05:04:28;;;;;;;3.27;2.33;;;;;;;7.67;66.28;101419.34;5057047;28;20025;-68
2022/05/08 05:06:55;;;;;;;3.47;2.87;;;;;;;7.59;67.68;101437.72;5063019;28;20092;-67
2022/05/08 05:09:21;;;;;;;3.03;2.47;;;;;;;7.45;68.05;101419.44;5062126;28;20036;-68
2022/05/08 05:11:47;;;;;;;5.10;2.53;;;;;;;7.56;68.71;101445.91;5059618;28;20467;-65
2022/05/08 05:14:13;;;;;;;2.93;2.67;;;;;;;7.52;68.29;101436.53;5061559;28;20037;-68
2022/05/08 05:16:38;;;;;;;5.37;2.80;;;;;;;7.54;68.12;101447.00;5059224;28;20455;-66
2022/05/08 05:19:04;;;;;;;3.90;2.87;;;;;;;7.53;68.29;101442.69;5058915;28;20965;-65
2022/05/08 05:21:30;;;;;;;4.10;2.97;;;;;;;7.52;68.39;101449.78;5056467;28;20087;-70
2022/05/08 05:23:56;;;;;;;3.30;3.00;;;;;;;7.54;68.59;101455.81;5035866;28;20504;-68
2022/05/08 05:26:22;;;;;;;5.00;2.53;;;;;;;7.46;67.66;101426.41;5053918;28;20076;-70
2022/05/08 05:28:48;;;;;;;5.07;2.53;;;;;;;7.62;68.04;101460.47;5057250;28;20037;-66
2022/05/08 05:31:14;;;;;;;6.83;2.50;;;;;;;7.50;68.05;101459.66;5056803;28;20028;-65
2022/05/08 05:33:40;;;;;;;5.93;2.70;;;;;;;7.44;67.99;101454.84;5055482;28;20056;-66
2022/05/08 05:36:06;;;;;;;3.63;2.60;;;;;;;7.50;68.65;101464.94;5053907;28;20123;-68
2022/05/08 05:38:32;;;;;;;5.80;2.27;;;;;;;7.46;68.04;101444.97;5052101;28;20190;-68
2022/05/08 05:40:57;;;;;;;4.23;1.90;;;;;;;7.31;68.15;101425.03;5053497;28;20059;-67
2022/05/08 05:43:23;;;;;;;5.43;2.30;;;;;;;7.52;67.39;101468.34;5052152;28;20036;-68
2022/05/08 05:47:49;;;;;;;3.20;1.70;;;;;;;7.56;67.84;101461.81;5053491;28;20556;-67
2022/05/08 05:48:37;;;;;;;2.50;1.97;;;;;;;7.65;67.77;101453.09;5053724;28;20028;-73
2022/05/08 05:51:05;;;;;;;3.63;1.80;;;;;;;7.65;67.19;101450.44;5053692;28;20185;-71
2022/05/08 05:53:31;;;;;;;4.73;1.87;;;;;;;7.65;67.36;101461.06;5053178;28;20037;-73
2022/05/08 05:55:59;;;;;;;8.93;2.83;;;;;;;7.55;68.36;101443.38;5051999;28;20408;-72
2022/05/08 05:58:25;;;;;;;6.72;2.25;;;;;;;7.81;68.16;101470.41;5052279;28;20729;-73
2022/05/08 06:00:50;;;;;;;12.03;2.80;;;;;;;7.79;67.84;101481.09;5052140;28;20082;-72
2022/05/08 06:03:16;;;;;;;4.20;2.53;;;;;;;7.78;67.68;101472.31;5052751;28;20041;-72
2022/05/08 06:05:42;;;;;;;3.50;2.30;;;;;;;7.67;67.60;101463.56;5053168;28;20029;-73
2022/05/08 06:08:07;;;;;;;8.27;1.90;;;;;;;7.62;67.78;101474.56;5053168;28;20051;-70
2022/05/08 06:10:33;;;;;;;3.43;2.07;;;;;;;7.66;67.50;101465.38;5052935;28;20040;-69
2022/05/08 06:12:59;;;;;;;3.80;2.10;;;;;;;7.85;67.87;101479.78;5051180;28;20060;-74
2022/05/08 06:15:24;;;;;;;5.53;1.83;;;;;;;7.83;67.26;101484.38;5052861;28;20040;-65
2022/05/08 06:17:50;;;;;;;3.50;1.80;;;;;;;7.93;67.52;101487.94;5052621;28;20381;-67
2022/05/08 06:20:15;;;;;;;8.00;2.40;;;;;;;7.98;67.36;101493.69;5052592;28;20037;-69
2022/05/08 06:22:42;;;;;;;7.47;2.50;;;;;;;7.87;67.51;101481.34;5052575;28;20412;-70
2022/05/08 06:25:08;;;;;;;4.83;2.50;;;;;;;8.07;67.34;101490.25;5052327;28;20052;-70
2022/05/08 06:27:34;;;;;;;4.20;2.03;;;;;;;8.25;66.14;101483.41;5052222;28;20033;-64
2022/05/08 06:30:09;;;;;;;6.53;2.27;;;;;;;8.18;65.85;101498.19;5051258;28;20052;-67
2022/05/08 06:32:35;;;;;;;8.10;2.50;;;;;;;8.12;65.91;101482.78;5051244;28;20040;-63
2022/05/08 06:35:01;;;;;;;4.30;2.30;;;;;;;8.27;66.16;101502.69;5034598;28;20106;-63
2022/05/08 06:37:27;;;;;;;7.13;4.17;;;;;;;8.26;65.78;101510.78;5052285;28;20497;-64
2022/05/08 06:39:52;;;;;;;7.67;2.60;;;;;;;8.29;64.90;101499.91;5052375;28;20035;-62
2022/05/08 06:42:18;;;;;;;11.13;2.60;;;;;;;8.41;65.30;101509.53;5052158;28;20036;-65
2022/05/08 06:44:44;;;;;;;5.57;2.00;;;;;;;8.44;64.45;101525.22;5052603;28;20041;-64
2022/05/08 06:47:10;;;;;;;6.37;2.23;;;;;;;8.43;64.93;101514.72;5053104;28;20093;-67
2022/05/08 06:49:36;;;;;;;2.77;2.27;;;;;;;8.46;64.56;101517.13;5052668;28;20431;-67
2022/05/08 06:52:02;;;;;;;3.27;2.20;;;;;;;8.69;64.83;101524.81;5052488;28;20055;-66
2022/05/08 06:54:28;;;;;;;7.57;2.63;;;;;;;8.95;63.31;101535.81;5051872;28;20041;-68
2022/05/08 06:56:55;;;;;;;4.40;1.73;;;;;;;8.94;62.57;101522.66;5052098;28;20041;-67
2022/05/08 07:02:07;;;;;;;4.13;2.23;;;;;;;8.89;62.87;101525.72;5052105;28;20377;-64
2022/05/08 07:04:33;;;;;;;6.50;2.40;;;;;;;9.30;62.43;101542.53;5051853;28;20048;-63
2022/05/08 07:06:58;;;;;;;6.83;2.40;;;;;;;8.97;62.72;101491.38;5051273;28;20032;-63
2022/05/08 07:09:23;;;;;;;6.30;2.20;;;;;;;9.37;62.28;101540.16;5050875;28;20040;-63
2022/05/08 07:11:49;;;;;;;10.33;3.03;;;;;;;9.49;63.72;101539.91;5051241;28;20071;-62
2022/05/08 07:14:15;;;;;;;6.70;2.10;;;;;;;9.54;61.72;101543.03;5051913;28;20404;-64
2022/05/08 07:16:40;;;;;;;6.63;2.97;;;;;;;9.56;62.30;101542.88;5051548;28;20040;-62
2022/05/08 07:19:06;;;;;;;4.73;2.37;;;;;;;9.51;61.95;101542.41;5051674;28;20416;-63
2022/05/08 07:21:31;;;;;;;5.73;3.47;;;;;;;9.59;62.61;101551.41;5051794;28;20033;-63
2022/05/08 07:23:57;;;;;;;6.03;2.40;;;;;;;9.44;62.11;101552.78;5051598;28;20033;-63
2022/05/08 07:26:23;;;;;;;5.00;2.20;;;;;;;8.98;62.05;101489.56;5051985;28;20044;-63
2022/05/08 07:28:48;;;;;;;6.57;3.33;;;;;;;9.57;61.08;101553.38;5051690;28;20430;-64
2022/05/08 07:31:14;;;;;;;2.93;2.30;;;;;;;9.25;60.81;101449.91;5051706;28;20037;-62
2022/05/08 07:33:39;;;;;;;5.73;2.80;;;;;;;9.61;59.61;101552.13;5051521;28;20051;-64
2022/05/08 07:36:12;;;;;;;4.00;2.07;;;;;;;9.81;59.24;101570.75;5051832;28;20158;-63
2022/05/08 07:38:46;;;;;;;3.50;2.83;;;;;;;9.77;58.99;101564.03;5052635;28;20040;-62
2022/05/08 07:41:17;;;;;;;4.17;2.40;;;;;;;9.84;58.47;101554.53;5051813;28;20569;-63
2022/05/08 07:43:46;;;;;;;4.77;2.20;;;;;;;9.93;58.44;101559.88;5050764;28;20507;-69
2022/05/08 07:46:13;;;;;;;4.87;2.43;;;;;;;9.82;58.26;101561.78;5051482;28;20048;-66
2022/05/08 07:48:38;;;;;;;2.57;2.17;;;;;;;9.70;58.55;101577.03;5051310;28;20123;-65
2022/05/08 07:51:04;;;;;;;4.87;2.67;;;;;;;9.46;59.88;101569.44;5051270;28;20140;-65
2022/05/08 07:53:32;;;;;;;7.60;2.70;;;;;;;9.50;60.31;101578.81;5037793;28;20091;-64
2022/05/08 07:55:58;;;;;;;5.70;2.53;;;;;;;9.71;59.61;101576.06;5038644;28;20385;-64
2022/05/08 07:58:31;;;;;;;2.20;2.00;;;;;;;9.88;59.16;101582.56;5052493;28;20242;-63
2022/05/08 08:00:57;;;;;;;5.77;2.93;;;;;;;9.99;59.17;101569.09;5051807;28;20120;-64
2022/05/08 08:03:29;;;;;;;4.53;2.03;;;;;;;10.04;60.31;101577.50;5051297;28;20554;-64
2022/05/08 08:05:56;;;;;;;3.17;2.40;;;;;;;9.92;60.47;101583.94;5051164;28;20079;-64
2022/05/08 08:08:23;;;;;;;4.03;1.90;;;;;;;9.68;61.97;101571.03;5051336;28;20454;-64
2022/05/08 08:10:52;;;;;;;7.27;2.73;;;;;;;9.98;62.16;101577.22;5051754;28;20155;-65
2022/05/08 08:13:19;;;;;;;7.03;2.75;;;;;;;9.94;60.49;101592.63;5051710;28;20033;-62
2022/05/08 08:15:46;;;;;;;4.23;2.67;;;;;;;9.88;60.35;101601.19;5050997;28;20131;-64
2022/05/08 08:18:12;;;;;;;10.37;2.30;;;;;;;9.61;60.59;101592.00;5051349;28;20040;-63
2022/05/08 08:20:38;;;;;;;8.67;3.47;;;;;;;9.50;60.34;101578.81;5054904;28;20041;-63
2022/05/08 08:23:03;;;;;;;7.90;2.80;;;;;;;9.67;59.84;101601.25;5054722;28;20508;-62
2022/05/08 08:25:29;;;;;;;4.37;2.10;;;;;;;9.50;58.90;101567.34;5055051;28;20048;-63
2022/05/08 08:27:55;;;;;;;2.97;1.87;;;;;;;9.41;58.86;101510.50;5055091;28;20032;-63
2022/05/08 08:30:20;;;;;;;6.63;2.43;;;;;;;10.07;58.06;101625.13;5055071;28;20045;-62
2022/05/08 08:32:47;;;;;;;15.13;2.93;;;;;;;9.84;58.38;101621.06;5053478;28;20464;-63
2022/05/08 08:35:12;;;;;;;3.10;2.37;;;;;;;9.84;59.44;101623.72;5055270;28;20041;-64
2022/05/08 08:37:38;;;;;;;7.60;2.90;;;;;;;9.64;58.68;101601.53;5054916;28;20060;-63
2022/05/08 08:40:05;;;;;;;3.83;2.43;;;;;;;9.56;58.92;101620.00;5054683;28;20059;-63
2022/05/08 08:42:31;;;;;;;9.77;2.90;;;;;;;9.42;59.42;101629.16;5054612;28;20087;-64
2022/05/08 08:47:53;;;;;;;4.53;2.07;;;;;;;9.32;59.67;101617.66;5055007;28;20029;-63
2022/05/08 08:50:22;;;;;;;8.87;2.60;;;;;;;9.40;60.06;101614.31;5054734;28;20037;-64
2022/05/08 08:52:48;;;;;;;6.10;2.20;;;;;;;9.26;58.76;101586.31;5054535;28;20056;-64
2022/05/08 08:55:17;;;;;;;2.77;2.03;;;;;;;9.51;59.11;101639.00;5054367;28;20053;-63
2022/05/08 08:57:44;;;;;;;2.70;1.97;;;;;;;9.60;59.74;101632.03;5054411;28;20037;-63
2022/05/08 09:00:10;;;;;;;7.97;2.47;;;;;;;9.84;59.14;101635.19;5054554;28;20514;-64
2022/05/08 09:02:35;;;;;;;5.27;2.00;;;;;;;9.97;57.94;101640.25;5054787;28;20400;-63
2022/05/08 09:05:07;;;;;;;3.90;2.80;;;;;;;9.95;58.00;101602.28;5055038;28;20036;-63
2022/05/08 09:07:41;;;;;;;3.67;2.30;;;;;;;10.24;57.86;101632.47;5055034;28;20033;-63
2022/05/08 09:10:14;;;;;;;10.70;3.23;;;;;;;10.17;58.12;101634.00;5054838;28;20182;-62
2022/05/08 09:12:43;;;;;;;3.20;2.20;;;;;;;10.17;57.25;101638.47;5052956;28;20033;-63
2022/05/08 09:15:20;;;;;;;;;;;;;;;9.93;56.44;101644.16;5054822;28;20130;-65
2022/05/08 09:17:48;;;;;;;10.03;2.10;;;;;;;9.50;57.53;101632.00;5054564;28;19981;-64
2022/05/08 09:20:33;;;;;;;8.63;1.80;;;;;;;9.44;56.49;101642.31;5054493;28;20408;-63
2022/05/08 09:23:02;;;;;;;6.73;1.63;;;;;;;9.35;57.10;101651.13;5054743;28;20072;-63
2022/05/08 09:25:54;;;;;;;5.38;2.00;;;;;;;9.43;57.07;101630.00;5054259;28;20049;-63
2022/05/08 09:28:30;;;;;;;3.87;1.67;;;;;;;9.48;56.89;101639.25;5052171;28;20028;-62
2022/05/08 09:31:22;;;;;;;4.50;2.07;;;;;;;9.63;56.05;101653.06;5053441;28;20048;-63
2022/05/08 09:33:51;;;;;;;5.27;1.97;;;;;;;9.43;55.91;101630.84;5052704;28;20106;-66
2022/05/08 09:36:20;;;;;;;5.93;1.87;;;;;;;9.36;54.40;101655.44;5053617;28;20127;-63
2022/05/08 09:38:56;;;;;;;4.37;1.73;;;;;;;9.41;54.96;101651.41;5053769;28;20178;-66
2022/05/08 09:41:27;;;;;;;5.53;1.57;;;;;;;9.22;55.71;101614.09;5053979;28;20066;-66
2022/05/08 09:43:56;;;;;;;5.30;1.90;;;;;;;9.80;55.72;101664.84;5053833;28;20442;-66
2022/05/08 09:46:23;;;;;;;4.10;1.97;;;;;;;9.91;55.63;101651.44;5053719;28;20060;-65
2022/05/08 09:48:49;;;;;;;5.03;2.00;;;;;;;9.67;54.42;101654.47;5053605;28;20056;-63
2022/05/08 09:51:16;;;;;;;3.30;2.40;;;;;;;9.48;56.43;101668.50;5053593;28;20119;-63
2022/05/08 09:53:43;;;;;;;2.80;2.13;;;;;;;8.99;56.90;101648.84;5053183;28;20037;-62
2022/05/08 09:56:13;;;;;;;4.07;1.83;;;;;;;8.96;56.82;101649.09;5053369;28;20056;-63
2022/05/08 09:58:40;;;;;;;5.47;3.03;;;;;;;9.02;57.25;101653.03;5053407;28;20033;-63
2022/05/08 10:01:09;;;;;;;2.47;1.40;;;;;;;8.81;57.19;101609.69;5053862;28;20127;-65
2022/05/08 10:03:35;;;;;;;1.93;1.40;;;;;;;9.12;54.87;101663.72;5055049;28;20033;-63
2022/05/08 10:06:02;;;;;;;1.97;1.40;;;;;;;8.98;56.14;101644.50;5054985;28;20400;-65
2022/05/08 10:08:37;;;;;;;6.07;1.80;;;;;;;9.09;57.20;101654.19;5052971;28;20447;-65
2022/05/08 10:13:58;;;;;;;5.20;2.77;;;;;;;9.48;57.33;101662.34;5056750;28;20064;-65
2022/05/08 10:16:49;;;;;;;3.00;1.97;;;;;;;9.55;57.02;101660.88;5055788;28;20504;-65
2022/05/08 10:19:17;;;;;;;4.70;2.20;;;;;;;9.55;57.06;101645.75;5054944;28;20124;-65
2022/05/08 10:22:09;;;;;;;3.38;2.08;;;;;;;9.71;57.42;101666.50;5053725;28;20127;-64
2022/05/08 10:24:39;;;;;;;3.23;2.07;;;;;;;9.73;57.32;101659.22;5053830;28;20123;-64
2022/05/08 10:27:16;;;;;;;5.80;2.53;;;;;;;9.83;57.30;101664.56;5055756;28;20048;-64
2022/05/08 10:29:42;;;;;;;2.47;1.90;;;;;;;9.84;57.32;101656.47;5055968;28;20033;-65
2022/05/08 10:32:10;;;;;;;3.60;1.80;;;;;;;9.88;56.28;101651.72;5054870;28;20527;-63
2022/05/08 10:34:39;;;;;;;4.68;1.95;;;;;;;9.93;56.63;101657.47;5052597;28;20036;-64
2022/05/08 10:37:12;;;;;;;2.93;1.60;;;;;;;9.93;57.07;101668.13;5052392;28;20055;-63
2022/05/08 10:39:43;;;;;;;3.20;2.20;;;;;;;9.89;57.16;101690.66;5052222;28;20044;-64
2022/05/08 10:42:24;;;;;;;4.47;2.20;;;;;;;9.86;57.72;101675.81;5051515;28;20072;-63
2022/05/08 10:44:50;;;;;;;7.57;1.80;;;;;;;9.89;58.04;101669.38;5052412;28;20575;-63
2022/05/08 10:47:40;;;;;;;4.57;1.83;;;;;;;10.01;56.93;101673.59;5052381;28;20037;-64
2022/05/08 10:50:13;;;;;;;4.33;2.30;;;;;;;9.84;57.19;101660.97;5052081;28;20408;-63
2022/05/08 10:52:44;;;;;;;10.97;3.10;;;;;;;9.90;56.63;101682.53;5052140;28;20040;-63
2022/05/08 10:55:15;;;;;;;3.60;1.93;;;;;;;9.75;57.39;101677.72;5051993;28;20496;-62
2022/05/08 10:57:46;;;;;;;3.33;1.90;;;;;;;9.67;57.59;101680.22;5052168;28;20041;-63
2022/05/08 11:00:17;;;;;;;3.28;1.80;;;;;;;9.71;57.69;101684.28;5051871;28;20064;-63
2022/05/08 11:02:56;;;;;;;3.03;2.00;;;;;;;9.71;57.75;101687.78;5052591;28;20114;-64
2022/05/08 11:05:32;;;;;;;2.63;1.70;;;;;;;9.64;58.03;101681.31;5052224;28;20065;-63
2022/05/08 11:08:11;;;;;;;3.97;1.80;;;;;;;9.46;56.76;101654.50;5052813;28;20048;-63
2022/05/08 11:10:40;;;;;;;5.07;2.10;;;;;;;9.79;56.59;101695.94;5052340;28;20036;-64
2022/05/08 11:13:12;;;;;;;7.80;2.40;;;;;;;9.94;55.99;101697.25;5051734;28;20459;-63
2022/05/08 11:15:45;;;;;;;3.07;2.10;;;;;;;9.97;54.79;101719.25;5052108;28;20045;-64
2022/05/08 11:18:22;;;;;;;3.60;1.97;;;;;;;9.96;55.46;101704.25;5052121;28;20426;-63
2022/05/08 11:21:11;;;;;;;2.80;1.63;;;;;;;10.12;54.70;101710.75;5051830;28;20412;-63
2022/05/08 11:23:44;;;;;;;3.55;1.50;;;;;;;10.14;54.33;101716.78;5051755;28;20440;-63
2022/05/08 11:26:11;;;;;;;3.20;2.10;;;;;;;9.94;54.16;101725.69;5051709;28;20044;-62
2022/05/08 11:28:49;;;;;;;8.60;1.70;;;;;;;9.92;54.94;101730.28;5051349;28;20115;-65
2022/05/08 11:31:17;;;;;;;4.00;2.03;;;;;;;10.11;54.57;101746.31;5051364;28;20392;-63
2022/05/08 11:36:34;;;;;;;8.13;1.73;;;;;;;9.93;55.53;101750.59;5050816;28;20029;-65
2022/05/08 11:39:19;;;;;;;6.60;2.73;;;;;;;9.93;54.75;101766.56;5051133;28;20033;-64
2022/05/08 11:41:48;;;;;;;9.17;1.93;;;;;;;9.58;56.44;101764.31;5051340;28;20537;-62
2022/05/08 11:44:16;;;;;;;5.57;2.13;;;;;;;9.82;56.17;101783.44;5050891;28;20044;-63
2022/05/08 11:46:54;;;;;;;5.35;1.40;;;;;;;9.55;54.67;101764.56;5049710;28;20105;-64
2022/05/08 11:49:29;;;;;;;6.70;1.80;;;;;;;8.98;55.35;101801.25;5051255;28;20040;-64
2022/05/08 11:52:17;;;;;;;2.77;1.53;;;;;;;8.51;56.47;101807.78;5052332;28;20041;-63
2022/05/08 11:54:58;;;;;;;4.03;1.67;;;;;;;8.40;58.02;101809.63;5056363;28;20048;-63
2022/05/08 11:57:28;;;;;;;2.30;1.67;;;;;;;8.39;57.35;101803.47;5057117;28;20045;-64
2022/05/08 12:00:10;;;;;;;3.57;1.43;;;;;;;8.32;57.30;101799.56;5055615;28;20136;-62